sensor_id;sensor_type;location;lat;lon;timestamp;temperature;humidity
5617;DHT22;2830;50.656;7.568;2022-09-01T00:01:48;12.90;1.00
5617;DHT22;2830;50.656;7.568;2022-09-01T00:04:18;12.80;1.00
5617;DHT22;2830;50.656;7.568;2022-09-01T00:06:46;12.80;1.00
5617;DHT22;2830;50.656;7.568;2022-09-01T00:09:16;12.80;1.00
5617;DHT22;2830;50.656;7.568;2022-09-01T00:11:45;12.70;1.00
5617;DHT22;2830;50.656;7.568;2022-09-01T00:14:20;12.80;1.00
5617;DHT22;2830;50.656;7.568;2022-09-01T00:16:58;12.70;1.00
5617;DHT22;2830;50.656;7.568;2022-09-01T00:19:25;12.60;1.00
5617;DHT22;2830;50.656;7.568;2022-09-01T00:21:52;12.60;1.00
5617;DHT22;2830;50.656;7.568;2022-09-01T00:24:19;12.60;1.00
5617;DHT22;2830;50.656;7.568;2022-09-01T00:26:46;12.40;1.00
5617;DHT22;2830;50.656;7.568;2022-09-01T00:29:14;12.40;1.00
5617;DHT22;2830;50.656;7.568;2022-09-01T00:31:41;12.40;1.00
5617;DHT22;2830;50.656;7.568;2022-09-01T00:34:08;12.30;1.00
5617;DHT22;2830;50.656;7.568;2022-09-01T00:36:36;12.30;1.00
5617;DHT22;2830;50.656;7.568;2022-09-01T00:39:05;12.40;1.00
5617;DHT22;2830;50.656;7.568;2022-09-01T00:41:36;12.30;1.00
5617;DHT22;2830;50.656;7.568;2022-09-01T00:44:14;12.30;1.00
5617;DHT22;2830;50.656;7.568;2022-09-01T00:46:46;12.30;1.00
5617;DHT22;2830;50.656;7.568;2022-09-01T00:49:25;12.30;1.00
5617;DHT22;2830;50.656;7.568;2022-09-01T00:51:55;12.20;1.00
5617;DHT22;2830;50.656;7.568;2022-09-01T00:54:28;12.30;1.00
5617;DHT22;2830;50.656;7.568;2022-09-01T00:56:57;12.20;1.00
5617;DHT22;2830;50.656;7.568;2022-09-01T00:59:25;12.30;1.00
5617;DHT22;2830;50.656;7.568;2022-09-01T01:01:54;12.30;1.00
5617;DHT22;2830;50.656;7.568;2022-09-01T01:04:21;12.40;1.00
5617;DHT22;2830;50.656;7.568;2022-09-01T01:06:56;12.40;1.00
5617;DHT22;2830;50.656;7.568;2022-09-01T01:09:29;12.40;1.00
5617;DHT22;2830;50.656;7.568;2022-09-01T01:11:59;12.50;1.00
5617;DHT22;2830;50.656;7.568;2022-09-01T01:14:28;12.40;1.00
5617;DHT22;2830;50.656;7.568;2022-09-01T01:16:59;12.20;1.00
5617;DHT22;2830;50.656;7.568;2022-09-01T01:22:23;12.00;1.00
5617;DHT22;2830;50.656;7.568;2022-09-01T01:25:11;12.10;1.00
5617;DHT22;2830;50.656;7.568;2022-09-01T01:27:38;12.00;1.00
5617;DHT22;2830;50.656;7.568;2022-09-01T01:30:10;12.10;1.00
5617;DHT22;2830;50.656;7.568;2022-09-01T01:32:38;12.10;1.00
5617;DHT22;2830;50.656;7.568;2022-09-01T01:35:10;12.00;1.00
5617;DHT22;2830;50.656;7.568;2022-09-01T01:37:42;11.90;1.00
5617;DHT22;2830;50.656;7.568;2022-09-01T01:40:13;12.00;1.00
5617;DHT22;2830;50.656;7.568;2022-09-01T01:42:46;12.10;1.00
5617;DHT22;2830;50.656;7.568;2022-09-01T01:45:14;12.00;1.00
5617;DHT22;2830;50.656;7.568;2022-09-01T01:47:44;12.10;1.00
5617;DHT22;2830;50.656;7.568;2022-09-01T01:50:32;12.10;1.00
5617;DHT22;2830;50.656;7.568;2022-09-01T01:53:04;12.00;1.00
5617;DHT22;2830;50.656;7.568;2022-09-01T01:55:38;11.80;1.00
5617;DHT22;2830;50.656;7.568;2022-09-01T01:58:05;11.90;1.00
5617;DHT22;2830;50.656;7.568;2022-09-01T02:00:33;11.90;1.00
5617;DHT22;2830;50.656;7.568;2022-09-01T02:03:00;11.80;1.00
5617;DHT22;2830;50.656;7.568;2022-09-01T02:05:30;11.80;1.00
5617;DHT22;2830;50.656;7.568;2022-09-01T02:08:01;11.70;1.00
5617;DHT22;2830;50.656;7.568;2022-09-01T02:10:33;11.80;1.00
5617;DHT22;2830;50.656;7.568;2022-09-01T02:13:01;11.70;1.00
5617;DHT22;2830;50.656;7.568;2022-09-01T02:19:14;11.70;1.00
5617;DHT22;2830;50.656;7.568;2022-09-01T02:21:44;11.70;1.00
5617;DHT22;2830;50.656;7.568;2022-09-01T02:24:21;11.60;1.00
5617;DHT22;2830;50.656;7.568;2022-09-01T02:26:49;11.50;1.00
5617;DHT22;2830;50.656;7.568;2022-09-01T02:29:18;11.50;1.00
5617;DHT22;2830;50.656;7.568;2022-09-01T02:31:49;11.50;1.00
5617;DHT22;2830;50.656;7.568;2022-09-01T02:34:17;11.40;1.00
5617;DHT22;2830;50.656;7.568;2022-09-01T02:36:47;11.40;1.00
5617;DHT22;2830;50.656;7.568;2022-09-01T02:39:19;11.30;1.00
5617;DHT22;2830;50.656;7.568;2022-09-01T02:41:46;11.30;1.00
5617;DHT22;2830;50.656;7.568;2022-09-01T02:44:13;11.20;1.00
5617;DHT22;2830;50.656;7.568;2022-09-01T02:46:44;11.10;1.00
5617;DHT22;2830;50.656;7.568;2022-09-01T02:49:14;11.20;1.00
5617;DHT22;2830;50.656;7.568;2022-09-01T02:51:43;11.20;1.00
5617;DHT22;2830;50.656;7.568;2022-09-01T02:54:11;11.20;1.00
5617;DHT22;2830;50.656;7.568;2022-09-01T02:56:45;11.10;1.00
5617;DHT22;2830;50.656;7.568;2022-09-01T02:59:16;11.20;1.00
5617;DHT22;2830;50.656;7.568;2022-09-01T03:01:43;11.10;1.00
5617;DHT22;2830;50.656;7.568;2022-09-01T03:04:13;11.00;1.00
5617;DHT22;2830;50.656;7.568;2022-09-01T03:06:40;11.10;1.00
5617;DHT22;2830;50.656;7.568;2022-09-01T03:09:11;11.10;1.00
5617;DHT22;2830;50.656;7.568;2022-09-01T03:11:45;11.10;1.00
5617;DHT22;2830;50.656;7.568;2022-09-01T03:14:12;11.20;1.00
5617;DHT22;2830;50.656;7.568;2022-09-01T03:16:40;11.00;1.00
5617;DHT22;2830;50.656;7.568;2022-09-01T03:19:08;10.90;1.00
5617;DHT22;2830;50.656;7.568;2022-09-01T03:21:37;10.90;1.00
5617;DHT22;2830;50.656;7.568;2022-09-01T03:24:10;10.80;1.00
5617;DHT22;2830;50.656;7.568;2022-09-01T03:26:40;10.80;1.00
5617;DHT22;2830;50.656;7.568;2022-09-01T03:29:08;10.80;1.00
5617;DHT22;2830;50.656;7.568;2022-09-01T03:31:35;10.70;1.00
5617;DHT22;2830;50.656;7.568;2022-09-01T03:34:03;10.80;1.00
5617;DHT22;2830;50.656;7.568;2022-09-01T03:36:33;10.80;1.00
5617;DHT22;2830;50.656;7.568;2022-09-01T03:39:00;10.80;1.00
5617;DHT22;2830;50.656;7.568;2022-09-01T03:41:28;10.80;1.00
5617;DHT22;2830;50.656;7.568;2022-09-01T03:43:56;10.70;1.00
5617;DHT22;2830;50.656;7.568;2022-09-01T03:46:25;10.70;1.00
5617;DHT22;2830;50.656;7.568;2022-09-01T03:55:46;10.40;1.00
5617;DHT22;2830;50.656;7.568;2022-09-01T03:58:15;10.50;1.00
5617;DHT22;2830;50.656;7.568;2022-09-01T04:00:47;10.50;1.00
5617;DHT22;2830;50.656;7.568;2022-09-01T04:03:16;10.50;1.00
5617;DHT22;2830;50.656;7.568;2022-09-01T04:05:54;10.40;1.00
5617;DHT22;2830;50.656;7.568;2022-09-01T04:08:22;10.30;1.00
5617;DHT22;2830;50.656;7.568;2022-09-01T04:11:01;10.40;1.00
5617;DHT22;2830;50.656;7.568;2022-09-01T04:13:34;10.30;1.00
5617;DHT22;2830;50.656;7.568;2022-09-01T04:16:02;10.30;1.00
5617;DHT22;2830;50.656;7.568;2022-09-01T04:18:36;10.40;1.00
5617;DHT22;2830;50.656;7.568;2022-09-01T04:21:04;10.30;1.00
5617;DHT22;2830;50.656;7.568;2022-09-01T04:23:34;10.10;1.00
5617;DHT22;2830;50.656;7.568;2022-09-01T04:26:04;10.10;1.00
5617;DHT22;2830;50.656;7.568;2022-09-01T04:28:44;10.30;1.00
5617;DHT22;2830;50.656;7.568;2022-09-01T04:31:17;10.30;1.00
5617;DHT22;2830;50.656;7.568;2022-09-01T04:33:49;10.20;1.00
5617;DHT22;2830;50.656;7.568;2022-09-01T04:36:24;10.20;1.00
5617;DHT22;2830;50.656;7.568;2022-09-01T04:38:55;10.10;1.00
5617;DHT22;2830;50.656;7.568;2022-09-01T04:41:25;10.10;1.00
5617;DHT22;2830;50.656;7.568;2022-09-01T04:43:53;10.00;1.00
5617;DHT22;2830;50.656;7.568;2022-09-01T04:46:25;10.00;1.00
5617;DHT22;2830;50.656;7.568;2022-09-01T04:48:54;9.90;1.00
5617;DHT22;2830;50.656;7.568;2022-09-01T04:51:24;9.90;1.00
5617;DHT22;2830;50.656;7.568;2022-09-01T04:53:55;9.80;1.00
5617;DHT22;2830;50.656;7.568;2022-09-01T04:56:24;9.90;1.00
5617;DHT22;2830;50.656;7.568;2022-09-01T04:58:52;9.80;1.00
5617;DHT22;2830;50.656;7.568;2022-09-01T05:01:24;9.90;1.00
5617;DHT22;2830;50.656;7.568;2022-09-01T05:03:52;9.90;1.00
5617;DHT22;2830;50.656;7.568;2022-09-01T05:06:28;9.90;1.00
5617;DHT22;2830;50.656;7.568;2022-09-01T05:08:55;10.00;1.00
5617;DHT22;2830;50.656;7.568;2022-09-01T05:11:25;10.10;1.00
5617;DHT22;2830;50.656;7.568;2022-09-01T05:13:53;10.10;1.00
5617;DHT22;2830;50.656;7.568;2022-09-01T05:16:23;10.20;1.00
5617;DHT22;2830;50.656;7.568;2022-09-01T05:18:52;10.00;1.00
5617;DHT22;2830;50.656;7.568;2022-09-01T05:21:20;9.90;1.00
5617;DHT22;2830;50.656;7.568;2022-09-01T05:23:50;10.00;1.00
5617;DHT22;2830;50.656;7.568;2022-09-01T05:26:22;10.10;1.00
5617;DHT22;2830;50.656;7.568;2022-09-01T05:28:53;10.20;1.00
5617;DHT22;2830;50.656;7.568;2022-09-01T05:31:21;10.20;1.00
5617;DHT22;2830;50.656;7.568;2022-09-01T05:33:49;10.30;1.00
5617;DHT22;2830;50.656;7.568;2022-09-01T05:36:19;10.30;1.00
5617;DHT22;2830;50.656;7.568;2022-09-01T05:38:47;10.40;1.00
5617;DHT22;2830;50.656;7.568;2022-09-01T05:41:16;10.50;1.00
5617;DHT22;2830;50.656;7.568;2022-09-01T05:43:45;10.60;1.00
5617;DHT22;2830;50.656;7.568;2022-09-01T05:46:17;10.60;1.00
5617;DHT22;2830;50.656;7.568;2022-09-01T05:48:46;10.60;1.00
5617;DHT22;2830;50.656;7.568;2022-09-01T05:51:18;10.60;1.00
5617;DHT22;2830;50.656;7.568;2022-09-01T05:54:05;10.80;1.00
5617;DHT22;2830;50.656;7.568;2022-09-01T05:56:35;10.90;1.00
5617;DHT22;2830;50.656;7.568;2022-09-01T05:59:11;10.90;1.00
5617;DHT22;2830;50.656;7.568;2022-09-01T06:01:54;10.80;1.00
5617;DHT22;2830;50.656;7.568;2022-09-01T06:04:22;10.70;1.00
5617;DHT22;2830;50.656;7.568;2022-09-01T06:06:50;10.70;1.00
5617;DHT22;2830;50.656;7.568;2022-09-01T06:09:39;10.80;1.00
5617;DHT22;2830;50.656;7.568;2022-09-01T06:12:06;10.90;1.00
5617;DHT22;2830;50.656;7.568;2022-09-01T06:14:44;10.90;1.00
5617;DHT22;2830;50.656;7.568;2022-09-01T06:17:11;10.90;1.00
5617;DHT22;2830;50.656;7.568;2022-09-01T06:19:42;11.00;1.00
5617;DHT22;2830;50.656;7.568;2022-09-01T06:22:09;11.10;1.00
5617;DHT22;2830;50.656;7.568;2022-09-01T06:24:37;11.20;1.00
5617;DHT22;2830;50.656;7.568;2022-09-01T06:27:08;11.40;1.00
5617;DHT22;2830;50.656;7.568;2022-09-01T06:29:38;11.70;1.00
5617;DHT22;2830;50.656;7.568;2022-09-01T06:32:08;12.10;1.00
5617;DHT22;2830;50.656;7.568;2022-09-01T06:34:38;12.90;1.00
5617;DHT22;2830;50.656;7.568;2022-09-01T06:37:05;13.40;1.00
5617;DHT22;2830;50.656;7.568;2022-09-01T06:39:32;14.00;99.90
5617;DHT22;2830;50.656;7.568;2022-09-01T06:41:59;14.50;99.90
5617;DHT22;2830;50.656;7.568;2022-09-01T06:44:32;16.00;14.50
5617;DHT22;2830;50.656;7.568;2022-09-01T06:46:59;17.30;99.90
5617;DHT22;2830;50.656;7.568;2022-09-01T06:49:26;17.80;1.00
5617;DHT22;2830;50.656;7.568;2022-09-01T06:51:59;17.20;1.00
5617;DHT22;2830;50.656;7.568;2022-09-01T06:54:26;17.00;1.00
5617;DHT22;2830;50.656;7.568;2022-09-01T06:56:52;18.00;99.90
5617;DHT22;2830;50.656;7.568;2022-09-01T06:59:20;18.10;1.00
5617;DHT22;2830;50.656;7.568;2022-09-01T07:01:47;17.70;1.00
5617;DHT22;2830;50.656;7.568;2022-09-01T07:04:28;18.10;99.90
5617;DHT22;2830;50.656;7.568;2022-09-01T07:06:55;18.10;1.00
5617;DHT22;2830;50.656;7.568;2022-09-01T07:09:42;17.90;1.00
5617;DHT22;2830;50.656;7.568;2022-09-01T07:12:29;17.40;99.90
5617;DHT22;2830;50.656;7.568;2022-09-01T07:14:57;17.00;88.70
5617;DHT22;2830;50.656;7.568;2022-09-01T07:17:51;17.10;41.70
5617;DHT22;2830;50.656;7.568;2022-09-01T07:20:20;18.00;22.90
5617;DHT22;2830;50.656;7.568;2022-09-01T07:22:51;19.30;1.00
5617;DHT22;2830;50.656;7.568;2022-09-01T07:25:36;20.10;1.00
5617;DHT22;2830;50.656;7.568;2022-09-01T07:28:24;21.20;99.90
5617;DHT22;2830;50.656;7.568;2022-09-01T07:31:03;22.40;99.90
5617;DHT22;2830;50.656;7.568;2022-09-01T07:33:52;23.30;99.90
5617;DHT22;2830;50.656;7.568;2022-09-01T07:36:40;23.80;97.00
5617;DHT22;2830;50.656;7.568;2022-09-01T07:39:28;24.90;67.90
5617;DHT22;2830;50.656;7.568;2022-09-01T07:42:18;25.40;37.10
5617;DHT22;2830;50.656;7.568;2022-09-01T07:45:09;25.80;32.50
5617;DHT22;2830;50.656;7.568;2022-09-01T07:47:53;26.20;28.30
5617;DHT22;2830;50.656;7.568;2022-09-01T07:50:20;26.10;23.90
5617;DHT22;2830;50.656;7.568;2022-09-01T07:53:07;26.40;18.00
5617;DHT22;2830;50.656;7.568;2022-09-01T07:55:38;26.00;16.30
5617;DHT22;2830;50.656;7.568;2022-09-01T07:58:05;26.50;16.10
5617;DHT22;2830;50.656;7.568;2022-09-01T08:00:32;26.40;12.60
5617;DHT22;2830;50.656;7.568;2022-09-01T08:02:59;26.20;10.70
5617;DHT22;2830;50.656;7.568;2022-09-01T08:05:26;26.70;12.10
5617;DHT22;2830;50.656;7.568;2022-09-01T08:07:54;27.30;11.40
5617;DHT22;2830;50.656;7.568;2022-09-01T08:10:21;27.70;9.30
5617;DHT22;2830;50.656;7.568;2022-09-01T08:12:48;27.50;7.90
5617;DHT22;2830;50.656;7.568;2022-09-01T08:15:22;27.50;5.80
5617;DHT22;2830;50.656;7.568;2022-09-01T08:18:10;27.80;2.90
5617;DHT22;2830;50.656;7.568;2022-09-01T08:20:40;28.00;3.70
5617;DHT22;2830;50.656;7.568;2022-09-01T08:23:15;28.40;1.00
5617;DHT22;2830;50.656;7.568;2022-09-01T08:25:45;28.40;1.00
5617;DHT22;2830;50.656;7.568;2022-09-01T08:28:13;28.80;1.00
5617;DHT22;2830;50.656;7.568;2022-09-01T08:30:41;28.30;1.00
5617;DHT22;2830;50.656;7.568;2022-09-01T08:33:18;28.30;1.00
5617;DHT22;2830;50.656;7.568;2022-09-01T08:35:47;29.00;1.00
5617;DHT22;2830;50.656;7.568;2022-09-01T08:38:14;29.30;1.00
5617;DHT22;2830;50.656;7.568;2022-09-01T08:40:42;29.00;1.00
5617;DHT22;2830;50.656;7.568;2022-09-01T08:46:22;29.70;1.00
5617;DHT22;2830;50.656;7.568;2022-09-01T08:48:53;29.60;1.00
5617;DHT22;2830;50.656;7.568;2022-09-01T08:51:55;29.50;1.00
5617;DHT22;2830;50.656;7.568;2022-09-01T08:54:37;29.80;1.00
5617;DHT22;2830;50.656;7.568;2022-09-01T08:57:13;30.10;1.00
5617;DHT22;2830;50.656;7.568;2022-09-01T08:59:42;29.90;1.00
5617;DHT22;2830;50.656;7.568;2022-09-01T09:02:42;30.00;1.00
5617;DHT22;2830;50.656;7.568;2022-09-01T09:05:32;30.40;1.00
5617;DHT22;2830;50.656;7.568;2022-09-01T09:11:07;29.50;1.00
5617;DHT22;2830;50.656;7.568;2022-09-01T09:16:36;31.20;1.00
5617;DHT22;2830;50.656;7.568;2022-09-01T09:19:08;31.10;1.00
5617;DHT22;2830;50.656;7.568;2022-09-01T09:21:41;31.00;1.00
5617;DHT22;2830;50.656;7.568;2022-09-01T09:24:28;30.50;1.00
5617;DHT22;2830;50.656;7.568;2022-09-01T09:27:34;30.60;1.00
5617;DHT22;2830;50.656;7.568;2022-09-01T09:33:04;30.80;1.00
5617;DHT22;2830;50.656;7.568;2022-09-01T09:35:52;31.30;1.00
5617;DHT22;2830;50.656;7.568;2022-09-01T09:38:23;30.60;1.00
5617;DHT22;2830;50.656;7.568;2022-09-01T09:54:38;27.10;1.00
5617;DHT22;2830;50.656;7.568;2022-09-01T09:59:41;28.80;1.00
5617;DHT22;2830;50.656;7.568;2022-09-01T10:02:33;29.00;1.00
5617;DHT22;2830;50.656;7.568;2022-09-01T10:07:48;26.80;1.00
5617;DHT22;2830;50.656;7.568;2022-09-01T10:10:41;26.50;1.00
5617;DHT22;2830;50.656;7.568;2022-09-01T10:13:18;25.80;1.00
5617;DHT22;2830;50.656;7.568;2022-09-01T10:15:54;26.00;1.00
5617;DHT22;2830;50.656;7.568;2022-09-01T10:18:24;26.10;1.00
5617;DHT22;2830;50.656;7.568;2022-09-01T10:21:07;26.20;1.00
5617;DHT22;2830;50.656;7.568;2022-09-01T10:23:36;26.10;1.00
5617;DHT22;2830;50.656;7.568;2022-09-01T10:29:00;26.50;1.00
5617;DHT22;2830;50.656;7.568;2022-09-01T10:31:32;27.30;1.00
5617;DHT22;2830;50.656;7.568;2022-09-01T10:34:04;26.80;1.00
5617;DHT22;2830;50.656;7.568;2022-09-01T10:36:34;27.40;1.00
5617;DHT22;2830;50.656;7.568;2022-09-01T10:39:06;28.50;1.00
5617;DHT22;2830;50.656;7.568;2022-09-01T10:44:34;31.30;1.00
5617;DHT22;2830;50.656;7.568;2022-09-01T10:47:25;31.20;1.00
5617;DHT22;2830;50.656;7.568;2022-09-01T10:49:58;30.60;1.00
5617;DHT22;2830;50.656;7.568;2022-09-01T10:55:20;31.80;1.00
5617;DHT22;2830;50.656;7.568;2022-09-01T10:58:07;31.50;1.00
5617;DHT22;2830;50.656;7.568;2022-09-01T11:01:00;30.10;1.00
5617;DHT22;2830;50.656;7.568;2022-09-01T11:03:56;30.20;1.00
5617;DHT22;2830;50.656;7.568;2022-09-01T11:12:28;31.30;1.00
5617;DHT22;2830;50.656;7.568;2022-09-01T11:15:05;32.60;1.00
5617;DHT22;2830;50.656;7.568;2022-09-01T11:20:28;30.40;1.00
5617;DHT22;2830;50.656;7.568;2022-09-01T11:25:44;31.40;1.00
5617;DHT22;2830;50.656;7.568;2022-09-01T11:30:54;31.40;1.00
5617;DHT22;2830;50.656;7.568;2022-09-01T11:33:31;31.80;1.00
5617;DHT22;2830;50.656;7.568;2022-09-01T11:36:05;31.40;1.00
5617;DHT22;2830;50.656;7.568;2022-09-01T11:41:28;29.00;1.00
5617;DHT22;2830;50.656;7.568;2022-09-01T11:44:01;27.80;1.00
5617;DHT22;2830;50.656;7.568;2022-09-01T11:46:34;27.60;1.00
5617;DHT22;2830;50.656;7.568;2022-09-01T11:49:31;28.90;1.00
5617;DHT22;2830;50.656;7.568;2022-09-01T11:51:59;30.90;1.00
5617;DHT22;2830;50.656;7.568;2022-09-01T11:54:29;31.20;1.00
5617;DHT22;2830;50.656;7.568;2022-09-01T11:57:26;31.80;1.00
5617;DHT22;2830;50.656;7.568;2022-09-01T11:59:57;33.00;1.00
5617;DHT22;2830;50.656;7.568;2022-09-01T12:02:33;32.40;1.00
5617;DHT22;2830;50.656;7.568;2022-09-01T12:05:22;32.30;1.00
5617;DHT22;2830;50.656;7.568;2022-09-01T12:07:50;32.50;1.00
5617;DHT22;2830;50.656;7.568;2022-09-01T12:10:28;31.20;1.00
5617;DHT22;2830;50.656;7.568;2022-09-01T12:13:11;31.70;1.00
5617;DHT22;2830;50.656;7.568;2022-09-01T12:15:43;33.20;1.00
5617;DHT22;2830;50.656;7.568;2022-09-01T12:18:44;33.20;1.00
5617;DHT22;2830;50.656;7.568;2022-09-01T12:21:21;33.50;1.00
5617;DHT22;2830;50.656;7.568;2022-09-01T12:23:48;33.70;1.00
5617;DHT22;2830;50.656;7.568;2022-09-01T12:26:19;33.00;1.00
5617;DHT22;2830;50.656;7.568;2022-09-01T12:28:49;32.30;1.00
5617;DHT22;2830;50.656;7.568;2022-09-01T12:31:19;31.20;1.00
5617;DHT22;2830;50.656;7.568;2022-09-01T12:33:47;31.80;1.00
5617;DHT22;2830;50.656;7.568;2022-09-01T12:36:19;31.20;1.00
5617;DHT22;2830;50.656;7.568;2022-09-01T12:38:47;31.30;1.00
5617;DHT22;2830;50.656;7.568;2022-09-01T12:41:34;32.10;1.00
5617;DHT22;2830;50.656;7.568;2022-09-01T12:47:10;30.50;1.00
5617;DHT22;2830;50.656;7.568;2022-09-01T12:49:44;29.30;1.00
5617;DHT22;2830;50.656;7.568;2022-09-01T12:55:10;27.50;1.00
5617;DHT22;2830;50.656;7.568;2022-09-01T12:58:02;26.80;1.00
5617;DHT22;2830;50.656;7.568;2022-09-01T13:00:31;26.90;1.00
5617;DHT22;2830;50.656;7.568;2022-09-01T13:05:36;28.00;1.00
5617;DHT22;2830;50.656;7.568;2022-09-01T13:08:10;28.60;1.00
5617;DHT22;2830;50.656;7.568;2022-09-01T13:10:42;28.70;1.00
5617;DHT22;2830;50.656;7.568;2022-09-01T13:13:10;28.00;1.00
5617;DHT22;2830;50.656;7.568;2022-09-01T13:15:42;27.30;1.00
5617;DHT22;2830;50.656;7.568;2022-09-01T13:18:09;27.00;1.00
5617;DHT22;2830;50.656;7.568;2022-09-01T13:20:37;27.30;1.00
5617;DHT22;2830;50.656;7.568;2022-09-01T13:23:04;27.80;1.00
5617;DHT22;2830;50.656;7.568;2022-09-01T13:25:31;28.20;1.00
5617;DHT22;2830;50.656;7.568;2022-09-01T13:27:58;28.70;1.00
5617;DHT22;2830;50.656;7.568;2022-09-01T13:30:28;28.60;1.00
5617;DHT22;2830;50.656;7.568;2022-09-01T13:32:56;28.40;1.00
5617;DHT22;2830;50.656;7.568;2022-09-01T13:35:43;28.10;1.00
5617;DHT22;2830;50.656;7.568;2022-09-01T13:38:09;28.70;1.00
5617;DHT22;2830;50.656;7.568;2022-09-01T13:40:36;29.10;1.00
5617;DHT22;2830;50.656;7.568;2022-09-01T13:43:03;29.40;1.00
5617;DHT22;2830;50.656;7.568;2022-09-01T13:45:30;29.80;1.00
5617;DHT22;2830;50.656;7.568;2022-09-01T13:47:59;29.30;1.00
5617;DHT22;2830;50.656;7.568;2022-09-01T13:50:44;28.90;1.00
5617;DHT22;2830;50.656;7.568;2022-09-01T13:53:31;28.30;1.00
5617;DHT22;2830;50.656;7.568;2022-09-01T13:55:57;28.10;1.00
5617;DHT22;2830;50.656;7.568;2022-09-01T13:58:24;28.10;1.00
5617;DHT22;2830;50.656;7.568;2022-09-01T14:00:51;27.50;1.00
5617;DHT22;2830;50.656;7.568;2022-09-01T14:03:21;27.30;1.00
5617;DHT22;2830;50.656;7.568;2022-09-01T14:05:48;27.00;1.00
5617;DHT22;2830;50.656;7.568;2022-09-01T14:08:17;26.70;1.00
5617;DHT22;2830;50.656;7.568;2022-09-01T14:10:47;26.50;1.00
5617;DHT22;2830;50.656;7.568;2022-09-01T14:13:16;26.10;1.00
5617;DHT22;2830;50.656;7.568;2022-09-01T14:15:44;26.00;1.00
5617;DHT22;2830;50.656;7.568;2022-09-01T14:18:12;25.80;1.00
5617;DHT22;2830;50.656;7.568;2022-09-01T14:20:44;25.80;1.00
5617;DHT22;2830;50.656;7.568;2022-09-01T14:23:12;25.60;1.00
5617;DHT22;2830;50.656;7.568;2022-09-01T14:25:48;25.30;1.00
5617;DHT22;2830;50.656;7.568;2022-09-01T14:28:16;25.10;1.00
5617;DHT22;2830;50.656;7.568;2022-09-01T14:30:47;25.00;1.00
5617;DHT22;2830;50.656;7.568;2022-09-01T14:33:15;24.90;1.00
5617;DHT22;2830;50.656;7.568;2022-09-01T14:35:45;24.80;1.00
5617;DHT22;2830;50.656;7.568;2022-09-01T14:38:12;24.80;1.00
5617;DHT22;2830;50.656;7.568;2022-09-01T14:40:40;24.80;1.00
5617;DHT22;2830;50.656;7.568;2022-09-01T14:43:09;24.90;1.00
5617;DHT22;2830;50.656;7.568;2022-09-01T14:45:38;25.10;1.00
5617;DHT22;2830;50.656;7.568;2022-09-01T14:48:06;25.10;1.00
5617;DHT22;2830;50.656;7.568;2022-09-01T14:50:40;24.90;1.00
5617;DHT22;2830;50.656;7.568;2022-09-01T14:53:07;24.80;1.00
5617;DHT22;2830;50.656;7.568;2022-09-01T14:55:34;24.70;1.00
5617;DHT22;2830;50.656;7.568;2022-09-01T14:58:00;24.50;1.00
5617;DHT22;2830;50.656;7.568;2022-09-01T15:00:28;24.40;1.00
5617;DHT22;2830;50.656;7.568;2022-09-01T15:02:56;24.60;1.00
5617;DHT22;2830;50.656;7.568;2022-09-01T15:05:24;24.80;1.00
5617;DHT22;2830;50.656;7.568;2022-09-01T15:07:51;25.10;1.00
5617;DHT22;2830;50.656;7.568;2022-09-01T15:10:21;25.40;1.00
5617;DHT22;2830;50.656;7.568;2022-09-01T15:12:51;25.40;1.00
5617;DHT22;2830;50.656;7.568;2022-09-01T15:15:18;25.50;1.00
5617;DHT22;2830;50.656;7.568;2022-09-01T15:17:45;25.40;1.00
5617;DHT22;2830;50.656;7.568;2022-09-01T15:20:12;25.30;1.00
5617;DHT22;2830;50.656;7.568;2022-09-01T15:22:57;25.30;1.00
5617;DHT22;2830;50.656;7.568;2022-09-01T15:25:24;25.50;1.00
5617;DHT22;2830;50.656;7.568;2022-09-01T15:27:51;25.60;1.00
5617;DHT22;2830;50.656;7.568;2022-09-01T15:30:18;25.70;1.00
5617;DHT22;2830;50.656;7.568;2022-09-01T15:32:47;25.70;1.00
5617;DHT22;2830;50.656;7.568;2022-09-01T15:35:16;25.80;1.00
5617;DHT22;2830;50.656;7.568;2022-09-01T15:37:45;26.00;1.00
5617;DHT22;2830;50.656;7.568;2022-09-01T15:40:12;26.20;1.00
5617;DHT22;2830;50.656;7.568;2022-09-01T15:42:39;26.30;1.00
5617;DHT22;2830;50.656;7.568;2022-09-01T15:45:09;26.30;1.00
5617;DHT22;2830;50.656;7.568;2022-09-01T15:47:36;26.30;1.00
5617;DHT22;2830;50.656;7.568;2022-09-01T15:50:06;26.10;1.00
5617;DHT22;2830;50.656;7.568;2022-09-01T15:52:47;26.00;1.00
5617;DHT22;2830;50.656;7.568;2022-09-01T15:55:19;25.80;1.00
5617;DHT22;2830;50.656;7.568;2022-09-01T15:57:47;25.60;1.00
5617;DHT22;2830;50.656;7.568;2022-09-01T16:00:14;25.40;1.00
5617;DHT22;2830;50.656;7.568;2022-09-01T16:02:41;25.40;1.00
5617;DHT22;2830;50.656;7.568;2022-09-01T16:05:09;25.20;1.00
5617;DHT22;2830;50.656;7.568;2022-09-01T16:07:35;25.20;1.00
5617;DHT22;2830;50.656;7.568;2022-09-01T16:10:03;25.10;1.00
5617;DHT22;2830;50.656;7.568;2022-09-01T16:12:31;25.00;1.00
5617;DHT22;2830;50.656;7.568;2022-09-01T16:15:01;25.00;1.00
5617;DHT22;2830;50.656;7.568;2022-09-01T16:17:50;25.00;1.00
5617;DHT22;2830;50.656;7.568;2022-09-01T16:20:25;25.00;1.00
5617;DHT22;2830;50.656;7.568;2022-09-01T16:22:56;25.10;1.00
5617;DHT22;2830;50.656;7.568;2022-09-01T16:25:29;25.10;1.00
5617;DHT22;2830;50.656;7.568;2022-09-01T16:28:03;25.10;1.00
5617;DHT22;2830;50.656;7.568;2022-09-01T16:30:33;25.10;1.00
5617;DHT22;2830;50.656;7.568;2022-09-01T16:33:03;25.10;1.00
5617;DHT22;2830;50.656;7.568;2022-09-01T16:36:05;25.10;1.00
5617;DHT22;2830;50.656;7.568;2022-09-01T16:39:06;25.20;1.00
5617;DHT22;2830;50.656;7.568;2022-09-01T16:47:06;25.00;1.00
5617;DHT22;2830;50.656;7.568;2022-09-01T16:49:34;24.90;1.00
5617;DHT22;2830;50.656;7.568;2022-09-01T16:52:09;24.70;1.00
5617;DHT22;2830;50.656;7.568;2022-09-01T16:54:45;24.60;1.00
5617;DHT22;2830;50.656;7.568;2022-09-01T16:57:29;24.50;1.00
5617;DHT22;2830;50.656;7.568;2022-09-01T17:00:03;24.30;1.00
5617;DHT22;2830;50.656;7.568;2022-09-01T17:02:53;24.10;1.00
5617;DHT22;2830;50.656;7.568;2022-09-01T17:05:36;24.10;1.00
5617;DHT22;2830;50.656;7.568;2022-09-01T17:08:15;24.00;1.00
5617;DHT22;2830;50.656;7.568;2022-09-01T17:11:09;24.00;1.00
5617;DHT22;2830;50.656;7.568;2022-09-01T17:13:45;23.80;1.00
5617;DHT22;2830;50.656;7.568;2022-09-01T17:19:00;23.70;1.00
5617;DHT22;2830;50.656;7.568;2022-09-01T17:21:41;23.60;1.00
5617;DHT22;2830;50.656;7.568;2022-09-01T17:24:17;23.50;1.00
5617;DHT22;2830;50.656;7.568;2022-09-01T17:26:45;23.50;1.00
5617;DHT22;2830;50.656;7.568;2022-09-01T17:29:16;23.40;1.00
5617;DHT22;2830;50.656;7.568;2022-09-01T17:34:50;23.30;1.00
5617;DHT22;2830;50.656;7.568;2022-09-01T17:37:30;23.20;1.00
5617;DHT22;2830;50.656;7.568;2022-09-01T17:45:39;22.70;1.00
5617;DHT22;2830;50.656;7.568;2022-09-01T17:48:19;22.60;1.00
5617;DHT22;2830;50.656;7.568;2022-09-01T17:56:51;21.90;1.00
5617;DHT22;2830;50.656;7.568;2022-09-01T18:02:23;21.40;1.00
5617;DHT22;2830;50.656;7.568;2022-09-01T18:05:10;21.20;1.00
5617;DHT22;2830;50.656;7.568;2022-09-01T18:08:00;20.90;1.00
5617;DHT22;2830;50.656;7.568;2022-09-01T18:10:33;20.70;1.00
5617;DHT22;2830;50.656;7.568;2022-09-01T18:13:05;20.60;1.00
5617;DHT22;2830;50.656;7.568;2022-09-01T18:15:49;20.30;1.00
5617;DHT22;2830;50.656;7.568;2022-09-01T18:18:40;20.10;1.00
5617;DHT22;2830;50.656;7.568;2022-09-01T18:23:45;19.80;1.00
5617;DHT22;2830;50.656;7.568;2022-09-01T18:26:27;19.60;1.00
5617;DHT22;2830;50.656;7.568;2022-09-01T18:28:57;19.40;18.20
5617;DHT22;2830;50.656;7.568;2022-09-01T18:37:37;19.10;99.90
5617;DHT22;2830;50.656;7.568;2022-09-01T18:40:32;18.80;99.90
5617;DHT22;2830;50.656;7.568;2022-09-01T18:43:14;18.80;99.90
5617;DHT22;2830;50.656;7.568;2022-09-01T18:45:51;18.50;1.00
5617;DHT22;2830;50.656;7.568;2022-09-01T18:48:33;18.50;1.00